Time;durP1;ratioP1;P1;durP2;ratioP2;P2;SDS_P1;SDS_P2;PMS_P1;PMS_P2;Temp;Humidity;BMP_temperature;BMP_pressure;BME280_temperature;BME280_humidity;BME280_pressure;Samples;Min_cycle;Max_cycle;Signal;HPM_P1;HPM_P2
2021/03/11 00:00:07;;;;;;;24.35;11.00;;;8.50;54.30;;;;;;4972284;28;20121;-76
2021/03/11 00:02:33;;;;;;;24.00;10.90;;;8.50;54.30;;;;;;4989152;28;20038;-76
2021/03/11 00:04:59;;;;;;;20.83;10.82;;;8.50;54.30;;;;;;4980171;28;20072;-77
2021/03/11 00:07:24;;;;;;;23.73;10.27;;;8.50;53.90;;;;;;5003873;28;20459;-77
2021/03/11 00:09:50;;;;;;;27.67;10.68;;;8.50;54.30;;;;;;5003231;28;20042;-76
2021/03/11 00:12:15;;;;;;;23.08;9.98;;;8.50;53.90;;;;;;4997091;28;20048;-77
2021/03/11 00:14:41;;;;;;;22.45;10.30;;;8.50;54.60;;;;;;4994637;28;20221;-78
2021/03/11 00:17:06;;;;;;;20.48;9.57;;;8.50;54.90;;;;;;4997497;28;20049;-78
2021/03/11 00:19:33;;;;;;;29.80;11.57;;;8.50;54.00;;;;;;4991948;28;20117;-77
2021/03/11 00:21:59;;;;;;;20.65;10.48;;;8.50;54.20;;;;;;4987016;28;20038;-77
2021/03/11 00:24:25;;;;;;;23.42;10.82;;;8.60;54.30;;;;;;4987004;28;20073;-77
2021/03/11 00:26:51;;;;;;;24.88;11.00;;;8.50;54.30;;;;;;4986182;28;20042;-77
2021/03/11 00:29:17;;;;;;;22.95;10.55;;;8.50;54.60;;;;;;4988459;28;20034;-76
2021/03/11 00:31:43;;;;;;;25.25;11.50;;;8.60;54.30;;;;;;4970074;28;20041;-76
2021/03/11 00:34:08;;;;;;;23.30;11.00;;;8.50;54.60;;;;;;4984889;28;20046;-76
2021/03/11 00:36:34;;;;;;;22.25;10.50;;;8.60;54.20;;;;;;4970977;28;20582;-76
2021/03/11 00:39:00;;;;;;;20.23;9.93;;;8.70;55.20;;;;;;4986652;28;20038;-75
2021/03/11 00:41:26;;;;;;;22.45;10.35;;;8.60;56.10;;;;;;4987883;28;20034;-76
2021/03/11 00:43:51;;;;;;;21.88;9.93;;;8.70;54.80;;;;;;4986876;28;20034;-77
2021/03/11 00:46:18;;;;;;;21.80;9.52;;;8.80;54.70;;;;;;4981452;28;20038;-78
2021/03/11 00:48:43;;;;;;;28.88;10.45;;;8.80;54.40;;;;;;4975349;28;20048;-78
2021/03/11 00:51:09;;;;;;;23.05;11.00;;;8.80;54.50;;;;;;4991892;28;20038;-76
2021/03/11 00:53:34;;;;;;;23.77;9.55;;;8.80;54.70;;;;;;4990029;28;20049;-77
2021/03/11 00:56:00;;;;;;;19.42;10.10;;;8.80;54.60;;;;;;4986173;28;20042;-77
2021/03/11 00:58:25;;;;;;;25.20;10.60;;;8.80;55.40;;;;;;4999100;28;20048;-77
2021/03/11 01:00:51;;;;;;;23.63;10.80;;;8.80;55.30;;;;;;4991998;28;20498;-77
2021/03/11 01:03:17;;;;;;;19.92;9.68;;;8.80;55.10;;;;;;5003328;28;20026;-75
2021/03/11 01:05:42;;;;;;;20.52;10.27;;;8.80;55.80;;;;;;4986669;28;20034;-78
2021/03/11 01:08:08;;;;;;;19.73;10.15;;;8.70;55.80;;;;;;4984282;28;20076;-77
2021/03/11 01:10:38;;;;;;;21.38;11.05;;;8.80;56.40;;;;;;5005300;28;20030;-77
2021/03/11 01:13:04;;;;;;;23.70;9.70;;;8.80;55.80;;;;;;4987949;28;20130;-77
2021/03/11 01:15:39;;;;;;;22.98;9.88;;;8.80;55.90;;;;;;5001325;28;20419;-77
2021/03/11 01:18:06;;;;;;;20.50;10.40;;;8.80;56.10;;;;;;4992933;28;20041;-77
2021/03/11 01:20:32;;;;;;;21.05;9.80;;;8.70;56.40;;;;;;5002565;28;20403;-77
2021/03/11 01:22:58;;;;;;;23.20;10.70;;;8.80;56.10;;;;;;5002288;28;20061;-78
2021/03/11 01:25:24;;;;;;;27.90;10.80;;;8.80;56.20;;;;;;5004728;28;20077;-77
2021/03/11 01:27:49;;;;;;;22.42;10.30;;;8.80;56.40;;;;;;5003193;28;20054;-76
2021/03/11 01:30:16;;;;;;;20.83;9.63;;;8.80;56.40;;;;;;4994003;28;20156;-78
2021/03/11 01:32:41;;;;;;;21.55;10.80;;;8.80;56.40;;;;;;4982287;28;20045;-77
2021/03/11 01:35:08;;;;;;;21.83;10.15;;;8.80;56.60;;;;;;4981346;28;20050;-78
2021/03/11 01:37:33;;;;;;;20.58;10.02;;;8.80;56.60;;;;;;5001585;28;20034;-76
2021/03/11 01:39:59;;;;;;;20.48;10.07;;;8.80;56.90;;;;;;5001330;28;20123;-77
2021/03/11 01:42:24;;;;;;;22.83;10.02;;;8.80;58.50;;;;;;4999738;28;20126;-77
2021/03/11 01:44:50;;;;;;;21.10;9.38;;;8.70;58.20;;;;;;5001086;28;20042;-77
2021/03/11 01:47:16;;;;;;;21.75;9.93;;;8.70;57.80;;;;;;5003289;28;20122;-75
2021/03/11 01:49:41;;;;;;;24.85;10.30;;;8.70;57.60;;;;;;5002197;28;20054;-76
2021/03/11 01:52:07;;;;;;;19.42;9.85;;;8.80;57.90;;;;;;5006023;28;20070;-77
2021/03/11 01:54:33;;;;;;;19.02;8.35;;;8.70;58.00;;;;;;4988300;28;20033;-77
2021/03/11 01:57:02;;;;;;;18.60;8.25;;;8.70;58.60;;;;;;5003869;28;20117;-79
2021/03/11 01:59:28;;;;;;;19.85;8.90;;;8.80;58.70;;;;;;5002121;28;20044;-77
2021/03/11 02:01:57;;;;;;;18.80;8.25;;;8.80;59.20;;;;;;5001596;28;20150;-77
2021/03/11 02:04:23;;;;;;;13.27;6.32;;;8.80;59.40;;;;;;4988169;28;20034;-78
2021/03/11 02:06:49;;;;;;;15.65;7.22;;;8.80;59.20;;;;;;4998233;28;20041;-76
2021/03/11 02:09:14;;;;;;;14.25;7.00;;;8.80;59.70;;;;;;4990438;28;20046;-78
2021/03/11 02:11:46;;;;;;;12.07;6.20;;;8.80;60.50;;;;;;4991009;28;20057;-76
2021/03/11 02:14:33;;;;;;;14.40;6.28;;;8.80;60.70;;;;;;4990727;28;20034;-77
2021/03/11 02:17:01;;;;;;;15.45;6.00;;;8.90;61.40;;;;;;5000253;28;20056;-77
2021/03/11 02:19:39;;;;;;;13.05;6.03;;;8.90;61.60;;;;;;5001492;28;20120;-77
2021/03/11 02:22:14;;;;;;;15.52;5.22;;;8.90;61.80;;;;;;4999906;28;20044;-76
2021/03/11 02:25:13;;;;;;;14.73;5.07;;;8.90;62.00;;;;;;4998772;28;20031;-77
2021/03/11 02:28:12;;;;;;;10.25;4.88;;;8.90;62.30;;;;;;4981284;28;20909;-77
2021/03/11 02:30:38;;;;;;;10.45;4.55;;;8.90;62.50;;;;;;4995072;28;20061;-77
2021/03/11 02:33:08;;;;;;;10.52;4.38;;;8.90;63.50;;;;;;4975951;28;20034;-77
2021/03/11 02:35:35;;;;;;;13.15;4.75;;;8.90;63.20;;;;;;4974052;28;20116;-77
2021/03/11 02:38:03;;;;;;;10.27;4.63;;;8.90;64.10;;;;;;4979759;28;20053;-78
2021/03/11 02:40:31;;;;;;;10.70;4.55;;;8.90;63.80;;;;;;4992861;28;20108;-78
2021/03/11 02:42:59;;;;;;;10.32;5.03;;;8.80;63.60;;;;;;4992404;28;20042;-77
2021/03/11 02:45:28;;;;;;;9.57;4.32;;;8.90;64.20;;;;;;4991896;28;20080;-77
2021/03/11 02:47:57;;;;;;;11.43;4.45;;;8.90;63.80;;;;;;4984301;28;20038;-79
2021/03/11 02:50:23;;;;;;;10.02;4.85;;;8.80;64.10;;;;;;4983162;28;20031;-78
2021/03/11 02:52:49;;;;;;;11.48;4.80;;;8.80;64.40;;;;;;4985297;28;20598;-75
2021/03/11 02:55:16;;;;;;;17.95;5.10;;;8.80;64.10;;;;;;4974424;28;20101;-77
2021/03/11 02:57:43;;;;;;;10.85;5.65;;;8.90;63.70;;;;;;4983481;28;20492;-77
2021/03/11 03:00:11;;;;;;;9.25;4.90;;;8.90;63.70;;;;;;4992373;28;20038;-77
2021/03/11 03:02:41;;;;;;;9.50;4.60;;;8.80;63.50;;;;;;4992182;28;20042;-77
2021/03/11 03:05:08;;;;;;;17.45;6.20;;;8.80;63.90;;;;;;4990686;28;20918;-76
2021/03/11 03:07:36;;;;;;;15.38;5.45;;;8.80;63.90;;;;;;4994526;28;20044;-77
2021/03/11 03:10:05;;;;;;;14.85;7.13;;;8.80;63.90;;;;;;4977352;28;20034;-77
2021/03/11 03:12:31;;;;;;;15.70;6.30;;;8.80;63.30;;;;;;4994464;28;20116;-76
2021/03/11 03:14:56;;;;;;;12.88;6.22;;;8.70;63.40;;;;;;4993897;28;20499;-76
2021/03/11 03:17:23;;;;;;;12.68;6.22;;;8.80;63.10;;;;;;4992981;28;20038;-76
2021/03/11 03:19:50;;;;;;;15.00;6.15;;;8.80;62.60;;;;;;4990617;28;22328;-76
2021/03/11 03:22:17;;;;;;;10.90;5.68;;;8.80;62.30;;;;;;4990767;28;20030;-77
2021/03/11 03:24:45;;;;;;;12.85;6.00;;;8.80;62.40;;;;;;4976332;28;20046;-77
2021/03/11 03:27:13;;;;;;;16.05;6.35;;;8.80;62.90;;;;;;4993995;28;20031;-76
2021/03/11 03:29:38;;;;;;;12.80;6.18;;;8.80;63.40;;;;;;4980615;28;20061;-76
2021/03/11 03:32:05;;;;;;;14.25;6.32;;;8.70;64.80;;;;;;4993626;28;20084;-76
2021/03/11 03:34:30;;;;;;;12.23;6.82;;;8.70;65.90;;;;;;4996977;28;20044;-76
2021/03/11 03:36:56;;;;;;;11.95;6.35;;;8.60;69.00;;;;;;4991169;28;20031;-77
2021/03/11 03:39:21;;;;;;;12.52;6.53;;;8.50;75.70;;;;;;4989564;28;20084;-76
2021/03/11 03:41:50;;;;;;;16.15;6.57;;;8.40;79.10;;;;;;4996068;28;20089;-77
2021/03/11 03:44:19;;;;;;;15.85;6.65;;;8.40;75.80;;;;;;4993059;28;20045;-77
2021/03/11 03:46:45;;;;;;;15.57;5.93;;;8.40;69.80;;;;;;4988682;28;20046;-78
2021/03/11 03:49:12;;;;;;;14.63;5.93;;;8.50;69.90;;;;;;4983542;28;20129;-77
2021/03/11 03:51:42;;;;;;;15.05;6.25;;;8.40;70.70;;;;;;4999772;28;20515;-75
2021/03/11 03:54:23;;;;;;;16.75;5.90;;;8.40;71.70;;;;;;5005507;28;20368;-76
2021/03/11 03:56:54;;;;;;;12.70;6.07;;;8.40;72.30;;;;;;4987166;28;20042;-75
2021/03/11 03:59:26;;;;;;;12.10;5.63;;;8.40;72.80;;;;;;4981801;28;20045;-75
2021/03/11 04:01:58;;;;;;;17.67;6.03;;;8.40;72.10;;;;;;5004144;28;20072;-77
2021/03/11 04:04:28;;;;;;;9.10;4.93;;;8.50;72.40;;;;;;4990352;28;20442;-78
2021/03/11 04:06:55;;;;;;;12.77;5.47;;;8.50;73.40;;;;;;4974977;28;20038;-78
2021/03/11 04:09:23;;;;;;;11.70;5.50;;;8.60;74.30;;;;;;4974577;28;20065;-78
2021/03/11 04:11:50;;;;;;;13.48;5.55;;;8.50;75.80;;;;;;4989866;28;20034;-77
2021/03/11 04:14:17;;;;;;;9.48;4.45;;;8.60;75.40;;;;;;4991007;28;20042;-78
2021/03/11 04:16:43;;;;;;;10.65;3.88;;;8.90;75.40;;;;;;4979350;28;20569;-79
2021/03/11 04:19:11;;;;;;;10.85;3.65;;;9.30;74.40;;;;;;4994417;28;20132;-77
2021/03/11 04:21:37;;;;;;;9.10;3.83;;;9.60;72.90;;;;;;4997823;28;20038;-77
2021/03/11 04:24:03;;;;;;;10.98;4.47;;;9.60;73.10;;;;;;4988895;28;20155;-75
2021/03/11 04:26:30;;;;;;;6.90;3.78;;;9.70;72.90;;;;;;4989083;28;20042;-77
2021/03/11 04:28:57;;;;;;;6.40;2.83;;;9.80;73.10;;;;;;4987624;28;20048;-77
2021/03/11 04:31:23;;;;;;;13.98;4.00;;;9.70;73.30;;;;;;4992222;28;20030;-78
2021/03/11 04:33:49;;;;;;;8.15;3.90;;;9.80;72.80;;;;;;4988886;28;20551;-77
2021/03/11 04:36:16;;;;;;;8.05;3.20;;;10.00;71.30;;;;;;4991732;28;20061;-76
2021/03/11 04:38:42;;;;;;;9.48;3.53;;;10.00;71.50;;;;;;4993659;28;20609;-77
2021/03/11 04:41:09;;;;;;;11.52;3.80;;;10.00;71.40;;;;;;4988499;28;20177;-77
2021/03/11 04:43:35;;;;;;;6.18;2.95;;;10.00;71.90;;;;;;4989213;28;20061;-78
2021/03/11 04:46:01;;;;;;;10.15;3.78;;;10.00;71.90;;;;;;4971664;28;20041;-78
2021/03/11 04:48:28;;;;;;;9.68;3.42;;;10.10;71.50;;;;;;4986612;28;20475;-78
2021/03/11 04:50:54;;;;;;;8.27;3.45;;;10.10;71.60;;;;;;4974772;28;20045;-77
2021/03/11 04:53:21;;;;;;;7.03;3.22;;;10.10;72.00;;;;;;4970059;28;20494;-78
2021/03/11 04:55:48;;;;;;;10.73;3.42;;;10.10;72.00;;;;;;4987920;28;20049;-79
2021/03/11 04:58:13;;;;;;;8.27;3.40;;;10.10;71.80;;;;;;4983185;28;20030;-78
2021/03/11 05:00:45;;;;;;;10.52;3.58;;;10.10;72.00;;;;;;4995903;28;20514;-77
2021/03/11 05:03:11;;;;;;;5.35;3.20;;;10.20;71.80;;;;;;4981152;28;20499;-77
2021/03/11 05:05:38;;;;;;;7.95;3.35;;;10.20;72.00;;;;;;4999043;28;20046;-78
2021/03/11 05:08:05;;;;;;;7.10;3.20;;;10.20;72.30;;;;;;4995843;28;20310;-77
2021/03/11 05:10:32;;;;;;;7.03;3.15;;;10.20;72.20;;;;;;5002472;28;20446;-78
2021/03/11 05:12:58;;;;;;;7.50;3.45;;;10.20;72.90;;;;;;4977070;28;20050;-77
2021/03/11 05:15:24;;;;;;;9.73;2.78;;;10.20;72.60;;;;;;4994135;28;20041;-79
2021/03/11 05:17:49;;;;;;;11.80;3.10;;;10.30;73.00;;;;;;4984270;28;20034;-77
2021/03/11 05:20:15;;;;;;;10.63;3.10;;;10.30;72.30;;;;;;4981210;28;20562;-78
2021/03/11 05:22:41;;;;;;;8.27;3.25;;;10.30;72.90;;;;;;4996381;28;20038;-76
2021/03/11 05:25:09;;;;;;;6.93;2.97;;;10.30;72.70;;;;;;4986309;28;20077;-76
2021/03/11 05:27:35;;;;;;;8.57;2.95;;;10.30;72.80;;;;;;4992486;28;20038;-78
2021/03/11 05:30:03;;;;;;;7.80;3.22;;;10.30;72.70;;;;;;4993921;28;20034;-77
2021/03/11 05:32:28;;;;;;;6.22;3.15;;;10.30;72.90;;;;;;4993437;28;20120;-78
2021/03/11 05:34:54;;;;;;;6.38;2.90;;;10.20;73.00;;;;;;4992557;28;20486;-78
2021/03/11 05:37:19;;;;;;;8.88;3.45;;;10.20;73.30;;;;;;4992073;28;20206;-78
2021/03/11 05:39:45;;;;;;;13.05;3.53;;;10.20;73.40;;;;;;4976929;28;20045;-77
2021/03/11 05:42:12;;;;;;;5.65;2.78;;;10.20;73.80;;;;;;4995994;28;20033;-79
2021/03/11 05:44:38;;;;;;;11.63;4.57;;;10.20;73.80;;;;;;4993844;28;20403;-77
2021/03/11 05:47:07;;;;;;;5.60;2.88;;;10.10;74.00;;;;;;4991826;28;20035;-78
2021/03/11 05:49:34;;;;;;;6.55;2.95;;;10.10;74.20;;;;;;4992375;28;20070;-78
2021/03/11 05:52:01;;;;;;;7.20;3.05;;;10.20;74.60;;;;;;4996632;28;20039;-79
2021/03/11 05:54:28;;;;;;;8.65;2.90;;;10.10;74.60;;;;;;4985252;28;20053;-79
2021/03/11 05:56:55;;;;;;;10.70;3.67;;;10.10;74.60;;;;;;4983353;28;20066;-79
2021/03/11 05:59:20;;;;;;;7.13;3.00;;;10.10;75.00;;;;;;5003295;28;20068;-79
2021/03/11 06:01:46;;;;;;;5.90;2.95;;;10.10;75.40;;;;;;4996038;28;20802;-80
2021/03/11 06:04:15;;;;;;;8.10;2.85;;;10.10;75.20;;;;;;4995543;28;20339;-80
2021/03/11 06:06:40;;;;;;;7.13;2.97;;;10.20;75.00;;;;;;4990885;28;20053;-79
2021/03/11 06:09:07;;;;;;;5.82;3.13;;;10.30;75.00;;;;;;4980257;28;20080;-77
2021/03/11 06:11:35;;;;;;;6.15;2.80;;;10.20;75.30;;;;;;4993323;28;20038;-78
2021/03/11 06:14:01;;;;;;;9.45;2.85;;;10.20;75.20;;;;;;4992782;28;20066;-78
2021/03/11 06:16:31;;;;;;;8.52;2.58;;;10.30;75.30;;;;;;4992826;28;20554;-77
2021/03/11 06:18:57;;;;;;;7.88;2.53;;;10.30;75.60;;;;;;4995018;28;20062;-79
2021/03/11 06:21:23;;;;;;;10.25;2.53;;;10.30;75.70;;;;;;4979761;28;20518;-78
2021/03/11 06:23:49;;;;;;;5.13;2.50;;;10.30;75.60;;;;;;4991401;28;20037;-77
2021/03/11 06:26:15;;;;;;;4.90;2.42;;;10.30;75.50;;;;;;4979619;28;20202;-78
2021/03/11 06:28:51;;;;;;;4.13;2.67;;;10.30;75.90;;;;;;4986480;28;20067;-78
2021/03/11 06:31:19;;;;;;;6.25;2.60;;;10.20;75.90;;;;;;4978045;28;20046;-78
2021/03/11 06:33:45;;;;;;;5.47;2.50;;;10.20;76.40;;;;;;4991028;28;20773;-78
2021/03/11 06:36:14;;;;;;;5.57;1.98;;;10.30;75.60;;;;;;4982625;28;20050;-80
2021/03/11 06:38:39;;;;;;;14.75;2.42;;;10.40;75.10;;;;;;4977846;28;20045;-80
2021/03/11 06:41:05;;;;;;;4.05;2.15;;;10.50;74.40;;;;;;4995787;28;20039;-81
2021/03/11 06:43:31;;;;;;;6.40;2.40;;;10.60;74.40;;;;;;4994695;28;20057;-79
2021/03/11 06:46:07;;;;;;;5.82;2.22;;;10.50;74.20;;;;;;4998196;28;20076;-79
2021/03/11 06:48:33;;;;;;;4.88;2.47;;;10.60;73.70;;;;;;4987343;28;20038;-80
2021/03/11 06:51:01;;;;;;;15.25;2.35;;;10.70;73.20;;;;;;4999946;28;20096;-79
2021/03/11 06:53:28;;;;;;;5.53;2.38;;;10.70;73.00;;;;;;4998031;28;20030;-79
2021/03/11 06:55:54;;;;;;;6.55;2.80;;;10.70;73.30;;;;;;4996294;28;20100;-80
2021/03/11 06:58:26;;;;;;;9.60;2.83;;;10.80;72.80;;;;;;4994301;28;20050;-81
2021/03/11 07:01:04;;;;;;;10.23;2.58;;;10.90;72.10;;;;;;4998098;28;20030;-81
2021/03/11 07:03:39;;;;;;;5.40;2.17;;;10.90;72.30;;;;;;4980317;28;20168;-80
2021/03/11 07:06:06;;;;;;;7.93;2.35;;;11.00;72.00;;;;;;4993153;28;20116;-81
2021/03/11 07:08:31;;;;;;;3.92;2.13;;;11.00;72.10;;;;;;4995564;28;20026;-80
2021/03/11 07:11:06;;;;;;;7.57;2.25;;;11.00;72.10;;;;;;4994417;28;20045;-80
2021/03/11 07:13:39;;;;;;;7.25;2.45;;;11.00;71.60;;;;;;4978476;28;20032;-80
2021/03/11 07:16:14;;;;;;;18.55;2.28;;;11.00;71.60;;;;;;4976441;28;20432;-80
2021/03/11 07:18:41;;;;;;;5.45;2.13;;;11.10;71.80;;;;;;4980302;28;20440;-80
2021/03/11 07:21:06;;;;;;;6.05;2.03;;;11.10;71.20;;;;;;4994719;28;20038;-80
2021/03/11 07:23:42;;;;;;;5.95;2.00;;;11.10;71.50;;;;;;4992126;28;21662;-79
2021/03/11 07:26:09;;;;;;;7.28;2.15;;;11.20;71.40;;;;;;4999400;28;20053;-80
2021/03/11 07:28:34;;;;;;;3.72;2.05;;;11.20;71.10;;;;;;4982328;28;20037;-80
2021/03/11 07:31:02;;;;;;;8.95;1.95;;;11.20;71.40;;;;;;4976036;28;20045;-80
2021/03/11 07:33:33;;;;;;;3.35;1.70;;;11.30;71.60;;;;;;4995429;28;20119;-80
2021/03/11 07:36:01;;;;;;;12.18;2.35;;;11.30;71.30;;;;;;5012281;28;20061;-81
2021/03/11 07:38:29;;;;;;;8.80;2.10;;;11.40;71.40;;;;;;5011484;28;20027;-80
2021/03/11 07:40:57;;;;;;;10.10;1.33;;;11.40;71.70;;;;;;5008448;28;20306;-80
2021/03/11 07:43:24;;;;;;;5.40;1.50;;;11.50;71.40;;;;;;4989027;28;20575;-81
2021/03/11 07:45:50;;;;;;;14.35;2.25;;;11.50;71.30;;;;;;5010324;28;20104;-80
2021/03/11 07:48:16;;;;;;;7.50;1.60;;;11.50;71.30;;;;;;4991124;28;20045;-80
2021/03/11 07:50:44;;;;;;;3.08;1.40;;;11.60;71.40;;;;;;4993747;28;20057;-82
2021/03/11 07:53:10;;;;;;;7.75;1.90;;;11.60;71.20;;;;;;5000286;28;20031;-81
2021/03/11 07:55:36;;;;;;;3.03;1.50;;;11.70;71.20;;;;;;4977209;28;20487;-80
2021/03/11 07:58:11;;;;;;;3.67;1.63;;;11.70;71.00;;;;;;4993729;28;20054;-80
2021/03/11 08:00:37;;;;;;;13.70;2.00;;;11.80;71.00;;;;;;4987164;28;20034;-79
2021/03/11 08:03:10;;;;;;;6.75;1.70;;;11.90;71.00;;;;;;4996906;28;20042;-80
2021/03/11 08:05:36;;;;;;;14.90;2.30;;;11.90;71.30;;;;;;4993126;28;20046;-81
2021/03/11 08:08:11;;;;;;;4.88;1.83;;;12.00;70.70;;;;;;4992246;28;20046;-81
2021/03/11 08:10:50;;;;;;;3.03;1.40;;;12.00;70.50;;;;;;4989868;28;20100;-81
2021/03/11 08:13:31;;;;;;;7.05;2.15;;;12.10;70.50;;;;;;4993952;28;20543;-81
2021/03/11 08:16:18;;;;;;;6.60;1.55;;;12.20;69.90;;;;;;4984300;28;20161;-80
2021/03/11 08:18:45;;;;;;;7.03;1.80;;;12.30;69.00;;;;;;4991070;28;20042;-79
2021/03/11 08:21:37;;;;;;;7.25;1.55;;;12.40;68.90;;;;;;4992715;28;20121;-80
2021/03/11 08:24:41;;;;;;;8.40;1.70;;;12.50;68.20;;;;;;4987448;28;20046;-80
2021/03/11 08:27:31;;;;;;;4.30;1.80;;;12.60;68.10;;;;;;4974567;28;20038;-80
2021/03/11 08:29:58;;;;;;;7.75;1.10;;;12.60;68.00;;;;;;5000885;28;20073;-79
2021/03/11 08:32:49;;;;;;;8.95;1.50;;;12.50;67.50;;;;;;4994055;28;20034;-79
2021/03/11 08:35:26;;;;;;;11.18;1.42;;;12.60;67.40;;;;;;4976129;28;20499;-79
2021/03/11 08:37:52;;;;;;;4.13;2.13;;;12.70;67.30;;;;;;4988995;28;20172;-81
2021/03/11 08:40:39;;;;;;;4.55;1.23;;;12.70;66.90;;;;;;4980801;28;21081;-80
2021/03/11 08:43:05;;;;;;;5.70;1.40;;;12.90;66.90;;;;;;4994315;28;20038;-82
2021/03/11 08:45:34;;;;;;;2.05;1.10;;;13.00;66.00;;;;;;5001788;28;20029;-80
2021/03/11 08:48:14;;;;;;;4.95;1.13;;;13.00;65.80;;;;;;4990835;28;20046;-80
2021/03/11 08:50:45;;;;;;;5.35;1.40;;;13.00;65.50;;;;;;4991567;28;20029;-81
2021/03/11 08:53:11;;;;;;;2.70;1.10;;;13.10;65.70;;;;;;4992925;28;20034;-81
2021/03/11 08:55:38;;;;;;;6.22;1.65;;;13.10;65.90;;;;;;4996309;28;20110;-80
2021/03/11 08:58:23;;;;;;;4.13;1.17;;;13.40;66.10;;;;;;4995234;28;20491;-81
2021/03/11 09:01:00;;;;;;;7.53;1.48;;;13.40;65.60;;;;;;4994706;28;20038;-81
2021/03/11 09:03:37;;;;;;;3.80;1.40;;;13.70;65.60;;;;;;5002173;28;20092;-80
2021/03/11 09:06:03;;;;;;;2.60;1.23;;;13.90;65.40;;;;;;4994550;28;20104;-82
2021/03/11 09:08:29;;;;;;;13.90;1.77;;;13.80;64.60;;;;;;4981000;28;20133;-81
2021/03/11 09:11:09;;;;;;;6.88;1.90;;;13.90;64.80;;;;;;4993244;28;20042;-81
2021/03/11 09:13:38;;;;;;;10.45;2.00;;;14.10;64.50;;;;;;5001448;28;20100;-80
2021/03/11 09:16:04;;;;;;;5.63;1.25;;;14.00;63.80;;;;;;4998324;28;20144;-80
2021/03/11 09:18:29;;;;;;;8.93;1.13;;;14.10;64.00;;;;;;5000474;28;20178;-82
2021/03/11 09:20:58;;;;;;;1.50;0.88;;;14.00;64.40;;;;;;4980050;28;20042;-81
2021/03/11 09:23:53;;;;;;;3.08;1.02;;;14.00;64.60;;;;;;4979054;28;20034;-81
2021/03/11 09:26:28;;;;;;;4.05;0.98;;;14.00;64.20;;;;;;4976553;28;20057;-80
2021/03/11 09:28:54;;;;;;;1.42;1.02;;;14.20;63.70;;;;;;4989086;28;20042;-81
2021/03/11 09:31:29;;;;;;;5.00;1.00;;;14.20;63.40;;;;;;4995608;28;20035;-82
2021/03/11 09:33:56;;;;;;;8.30;1.20;;;14.00;63.30;;;;;;4993190;28;20038;-81
2021/03/11 09:36:22;;;;;;;7.63;1.23;;;14.10;63.30;;;;;;4995006;28;20091;-81
2021/03/11 09:38:49;;;;;;;8.70;1.20;;;14.10;63.40;;;;;;4998713;28;20038;-82
2021/03/11 09:41:22;;;;;;;5.95;1.45;;;14.00;63.30;;;;;;4998529;28;20050;-81
2021/03/11 09:43:48;;;;;;;1.75;1.23;;;14.10;63.20;;;;;;4998543;28;20110;-82
2021/03/11 09:46:16;;;;;;;4.47;1.25;;;14.20;63.20;;;;;;4996341;28;20118;-81
2021/03/11 09:49:00;;;;;;;3.83;1.27;;;14.20;63.00;;;;;;4995408;28;20260;-82
2021/03/11 09:51:27;;;;;;;;;;;14.30;62.50;;;;;;4994262;28;20059;-81
2021/03/11 09:53:54;;;;;;;2.13;1.13;;;14.30;63.00;;;;;;4994347;28;19920;-82
2021/03/11 09:56:39;;;;;;;6.45;1.23;;;14.40;62.80;;;;;;4996906;28;20049;-83
2021/03/11 09:59:08;;;;;;;2.35;0.95;;;14.30;62.30;;;;;;4996104;28;20034;-81
2021/03/11 10:01:35;;;;;;;4.95;0.90;;;14.30;62.60;;;;;;4998360;28;20093;-82
2021/03/11 10:04:10;;;;;;;5.57;0.85;;;14.30;63.10;;;;;;4989881;28;20098;-82
2021/03/11 10:06:36;;;;;;;2.08;0.93;;;14.10;63.50;;;;;;4991815;28;20175;-81
2021/03/11 10:09:03;;;;;;;4.68;1.10;;;14.20;63.60;;;;;;4993616;28;20070;-82
2021/03/11 10:11:40;;;;;;;8.25;1.00;;;14.30;63.80;;;;;;4994623;28;20069;-82
2021/03/11 10:14:17;;;;;;;0.93;0.73;;;14.40;63.80;;;;;;4995982;28;20035;-81
2021/03/11 10:16:50;;;;;;;3.90;0.85;;;14.60;63.40;;;;;;4989028;28;20045;-81
2021/03/11 10:19:17;;;;;;;4.63;0.90;;;15.00;63.10;;;;;;4979783;28;20172;-82
2021/03/11 10:21:49;;;;;;;3.67;1.02;;;15.10;62.20;;;;;;4997025;28;20530;-81
2021/03/11 10:24:30;;;;;;;0.70;0.50;;;15.30;62.20;;;;;;4993801;28;20412;-81
2021/03/11 10:26:56;;;;;;;6.60;1.08;;;15.20;62.30;;;;;;4999039;28;20872;-81
2021/03/11 10:29:25;;;;;;;2.30;0.90;;;14.90;63.10;;;;;;4997096;28;20486;-80
2021/03/11 10:31:56;;;;;;;3.55;1.10;;;14.90;63.60;;;;;;5011549;28;20136;-80
2021/03/11 10:34:21;;;;;;;2.10;0.98;;;15.00;63.60;;;;;;4996368;28;20038;-79
2021/03/11 10:36:58;;;;;;;1.77;0.80;;;14.80;64.10;;;;;;4980662;28;20049;-81
2021/03/11 10:39:24;;;;;;;1.98;0.80;;;14.80;64.30;;;;;;4994305;28;20029;-83
2021/03/11 10:42:00;;;;;;;2.58;0.90;;;14.60;65.20;;;;;;4994598;28;20077;-82
2021/03/11 10:44:27;;;;;;;1.75;0.70;;;14.60;65.60;;;;;;4996696;28;20039;-81
2021/03/11 10:46:52;;;;;;;2.97;0.60;;;14.60;66.00;;;;;;4995601;28;20039;-81
2021/03/11 10:49:35;;;;;;;2.13;0.80;;;14.60;66.60;;;;;;4994769;28;20072;-81
2021/03/11 10:52:00;;;;;;;3.88;1.15;;;14.70;67.30;;;;;;4986731;28;20033;-82
2021/03/11 10:54:28;;;;;;;6.28;0.82;;;14.60;67.00;;;;;;4977711;28;20038;-80
2021/03/11 10:57:14;;;;;;;2.25;0.77;;;14.50;67.60;;;;;;4998379;28;20964;-83
2021/03/11 10:59:52;;;;;;;2.58;0.90;;;14.40;68.60;;;;;;4996143;28;20038;-81
2021/03/11 11:02:18;;;;;;;3.25;0.75;;;14.30;68.90;;;;;;4994806;28;20069;-81
2021/03/11 11:04:44;;;;;;;4.85;0.60;;;14.30;70.10;;;;;;4995580;28;20113;-81
2021/03/11 11:07:10;;;;;;;0.98;0.50;;;14.20;73.70;;;;;;4993220;28;20833;-82
2021/03/11 11:09:36;;;;;;;5.90;0.70;;;14.10;76.20;;;;;;4998965;28;20049;-82
2021/03/11 11:12:02;;;;;;;1.40;0.80;;;13.90;77.00;;;;;;4984746;28;20023;-81
2021/03/11 11:14:28;;;;;;;6.47;0.90;;;13.90;79.10;;;;;;5006441;28;20035;-81
2021/03/11 11:16:53;;;;;;;1.55;0.65;;;13.80;82.80;;;;;;4999581;28;20109;-82
2021/03/11 11:19:19;;;;;;;5.30;1.58;;;13.60;85.20;;;;;;5012746;28;20042;-80
2021/03/11 11:21:45;;;;;;;6.95;1.35;;;13.60;89.80;;;;;;5002453;28;20091;-80
2021/03/11 11:24:11;;;;;;;11.82;2.00;;;13.50;91.40;;;;;;5014959;28;20030;-81
2021/03/11 11:26:37;;;;;;;6.90;1.92;;;13.40;93.30;;;;;;5006073;28;20054;-80
2021/03/11 11:29:05;;;;;;;4.30;1.33;;;13.30;94.80;;;;;;4996774;28;20045;-79
2021/03/11 11:31:32;;;;;;;6.93;1.30;;;13.20;94.90;;;;;;4985182;28;20038;-78
2021/03/11 11:33:58;;;;;;;6.10;0.85;;;13.10;98.70;;;;;;4999191;28;20038;-78
2021/03/11 11:36:23;;;;;;;2.70;0.70;;;13.10;97.60;;;;;;4994262;28;20042;-78
2021/03/11 11:38:51;;;;;;;3.03;1.10;;;13.00;99.20;;;;;;4993677;28;20526;-78
2021/03/11 11:41:17;;;;;;;4.07;0.70;;;12.90;99.90;;;;;;4995504;28;20026;-79
2021/03/11 11:43:43;;;;;;;0.93;0.60;;;12.90;99.90;;;;;;4994493;28;20038;-77
2021/03/11 11:46:09;;;;;;;6.32;0.60;;;12.90;99.90;;;;;;4986029;28;20046;-78
2021/03/11 11:48:35;;;;;;;2.17;0.70;;;12.90;99.90;;;;;;4973895;28;20163;-78
2021/03/11 11:51:01;;;;;;;2.22;1.05;;;12.80;99.90;;;;;;4990369;28;20515;-79
2021/03/11 11:53:26;;;;;;;8.18;0.68;;;12.80;99.90;;;;;;4972810;28;20045;-79
2021/03/11 11:55:52;;;;;;;3.30;0.77;;;12.70;99.90;;;;;;4997940;28;20030;-78
2021/03/11 11:58:17;;;;;;;2.83;1.20;;;12.70;99.90;;;;;;4999288;28;20489;-79
2021/03/11 12:00:43;;;;;;;1.63;0.45;;;12.70;99.90;;;;;;4998656;28;20077;-78
2021/03/11 12:03:09;;;;;;;6.07;1.30;;;12.80;99.90;;;;;;4997429;28;20065;-80
2021/03/11 12:05:34;;;;;;;5.40;1.92;;;12.90;99.90;;;;;;4986340;28;20058;-80
2021/03/11 12:08:00;;;;;;;1.75;0.60;;;13.00;99.90;;;;;;5002375;28;20052;-81
2021/03/11 12:10:26;;;;;;;4.55;0.80;;;13.00;99.90;;;;;;4998152;28;20049;-82
2021/03/11 12:12:51;;;;;;;3.05;0.95;;;13.10;99.90;;;;;;4999352;28;20034;-80
2021/03/11 12:15:17;;;;;;;1.88;1.10;;;13.00;99.90;;;;;;4995704;28;20041;-82
2021/03/11 12:17:43;;;;;;;2.22;1.25;;;13.10;99.90;;;;;;4996054;28;20050;-82
2021/03/11 12:20:09;;;;;;;1.77;0.77;;;13.10;99.90;;;;;;4998208;28;20029;-82
2021/03/11 12:22:34;;;;;;;2.35;0.93;;;13.00;99.90;;;;;;4993609;28;20534;-82
2021/03/11 12:25:00;;;;;;;3.22;0.93;;;13.10;99.90;;;;;;4988447;28;20033;-82
2021/03/11 12:27:26;;;;;;;2.75;0.95;;;13.10;99.90;;;;;;4988171;28;20063;-81
2021/03/11 12:29:54;;;;;;;2.30;0.90;;;13.10;99.90;;;;;;5003881;28;20069;-81
2021/03/11 12:32:20;;;;;;;1.20;0.90;;;13.20;99.90;;;;;;4988116;28;20050;-82
2021/03/11 12:34:46;;;;;;;4.55;0.80;;;13.30;99.90;;;;;;4984264;28;20046;-82
2021/03/11 12:37:15;;;;;;;4.57;0.73;;;13.50;99.90;;;;;;4989854;28;20045;-82
2021/03/11 12:39:41;;;;;;;0.90;0.65;;;13.70;99.90;;;;;;4980278;28;20065;-83
2021/03/11 12:42:06;;;;;;;1.23;0.60;;;13.70;99.90;;;;;;4985937;28;20054;-82
2021/03/11 12:44:33;;;;;;;2.58;0.75;;;13.90;99.90;;;;;;4997516;28;20141;-82
2021/03/11 12:46:58;;;;;;;1.45;0.68;;;14.10;99.90;;;;;;4997322;28;20038;-81
2021/03/11 12:49:24;;;;;;;2.60;0.70;;;13.90;99.90;;;;;;4998760;28;20057;-81
2021/03/11 12:51:49;;;;;;;3.70;0.68;;;13.90;99.90;;;;;;4998765;28;21175;-82